Time;durP1;ratioP1;P1;durP2;ratioP2;P2;SDS_P1;SDS_P2;PMS_P1;PMS_P2;Temp;Humidity;BMP_temperature;BMP_pressure;BME280_temperature;BME280_humidity;BME280_pressure;Samples;Min_cycle;Max_cycle;Signal;HPM_P1;HPM_P2
2022/05/10 00:01:43;;;;;;;8.07;7.22;;;15.50;99.90;;;;;;5049992;28;20539;-80
2022/05/10 00:04:10;;;;;;;13.15;8.68;;;15.40;99.90;;;;;;5053322;28;20029;-86
2022/05/10 00:06:44;;;;;;;10.20;7.55;;;14.50;99.90;;;;;;5058652;28;20025;-83
2022/05/10 00:09:10;;;;;;;22.45;11.90;;;;;;;;;;5038349;28;20037;-81
2022/05/10 00:11:36;;;;;;;9.48;7.20;;;15.40;99.90;;;;;;5035392;28;20037;-84
2022/05/10 00:14:02;;;;;;;9.55;7.50;;;;;;;;;;5032810;28;20094;-79
2022/05/10 00:16:28;;;;;;;10.07;6.63;;;;;;;;;;5028653;28;20057;-83
2022/05/10 00:18:54;;;;;;;12.55;8.68;;;;;;;;;;5037237;28;20052;-82
2022/05/10 00:21:23;;;;;;;12.73;7.60;;;15.20;99.90;;;;;;5030486;28;20381;-82
2022/05/10 00:23:49;;;;;;;9.23;7.75;;;;;;;;;;5026952;28;20030;-81
2022/05/10 00:26:15;;;;;;;9.45;7.85;;;;;;;;;;5037058;28;20105;-80
2022/05/10 00:28:41;;;;;;;9.20;7.60;;;;;;;;;;5034537;28;20037;-80
2022/05/10 00:31:10;;;;;;;10.02;8.55;;;15.00;99.90;;;;;;5035226;28;20040;-81
2022/05/10 00:33:37;;;;;;;11.35;8.55;;;;;;;;;;5031798;28;20515;-82
2022/05/10 00:36:04;;;;;;;13.02;8.73;;;;;;;;;;5031507;28;20117;-79
2022/05/10 00:38:35;;;;;;;9.93;8.00;;;15.00;99.90;;;;;;5036950;28;20041;-83
2022/05/10 00:41:27;;;;;;;10.05;7.40;;;15.00;99.90;;;;;;5027394;28;20029;-85
2022/05/10 00:44:04;;;;;;;12.32;8.40;;;14.90;99.90;;;;;;5036036;28;20021;-86
2022/05/10 00:46:43;;;;;;;13.50;8.88;;;14.90;99.90;;;;;;5025951;28;20025;-82
2022/05/10 00:49:19;;;;;;;11.00;7.95;;;;;;;;;;5028602;28;20439;-83
2022/05/10 00:51:58;;;;;;;10.50;8.00;;;14.80;99.90;;;;;;5035012;28;20045;-82
2022/05/10 00:54:34;;;;;;;10.98;8.10;;;;;;;;;;5029798;28;20037;-83
2022/05/10 00:57:41;;;;;;;11.85;7.85;;;14.70;99.90;;;;;;5031556;28;20072;-85
2022/05/10 01:00:07;;;;;;;10.00;8.27;;;;;;;;;;5014295;28;20098;-83
2022/05/10 01:02:33;;;;;;;10.40;8.05;;;;;;;;;;5037781;28;20036;-83
2022/05/10 01:05:07;;;;;;;11.60;8.00;;;14.70;99.90;;;;;;5033138;28;20137;-82
2022/05/10 01:07:49;;;;;;;9.88;7.70;;;14.60;99.90;;;;;;5034575;28;20025;-82
2022/05/10 01:10:25;;;;;;;11.63;8.20;;;14.60;99.90;;;;;;5037119;28;20479;-82
2022/05/10 01:13:28;;;;;;;10.93;8.77;;;14.60;99.90;;;;;;5034103;28;20045;-82
2022/05/10 01:15:57;;;;;;;9.40;7.63;;;;;;;;;;5037309;28;20057;-84
2022/05/10 01:18:23;;;;;;;12.77;8.13;;;;;;;;;;5036238;28;20025;-83
2022/05/10 01:20:56;;;;;;;8.98;7.40;;;14.50;99.90;;;;;;5033825;28;20022;-82
2022/05/10 01:23:41;;;;;;;10.25;8.30;;;14.60;99.90;;;;;;5037177;28;20029;-82
2022/05/10 01:26:54;;;;;;;10.85;8.57;;;14.40;99.90;;;;;;5032689;28;20103;-82
2022/05/10 01:29:23;;;;;;;10.45;8.15;;;;;;;;;;4992916;28;20030;-81
2022/05/10 01:34:40;;;;;;;11.60;8.80;;;14.30;99.90;;;;;;5037193;28;20044;-81
2022/05/10 01:37:12;;;;;;;10.05;8.32;;;14.30;99.90;;;;;;5034587;28;20334;-84
2022/05/10 01:39:50;;;;;;;14.63;9.30;;;14.30;99.90;;;;;;5036239;28;20030;-82
2022/05/10 01:42:19;;;;;;;11.45;8.55;;;;;;;;;;5036653;28;20053;-84
2022/05/10 01:44:51;;;;;;;11.73;8.52;;;;;;;;;;5038031;28;20026;-83
2022/05/10 01:47:55;;;;;;;12.07;8.82;;;14.30;99.90;;;;;;5036503;28;20077;-82
2022/05/10 01:50:34;;;;;;;9.75;8.02;;;14.20;99.90;;;;;;5032969;28;20046;-84
2022/05/10 01:53:12;;;;;;;9.30;7.90;;;;;;;;;;5035078;28;20025;-83
2022/05/10 01:55:46;;;;;;;9.10;8.10;;;;;;;;;;5027572;28;20060;-81
2022/05/10 01:58:16;;;;;;;11.23;8.25;;;;;;;;;;5037126;28;20476;-79
2022/05/10 02:00:45;;;;;;;;;;;14.10;99.90;;;;;;5034656;28;20021;-82
2022/05/10 02:03:42;;;;;;;9.85;7.63;;;14.00;99.90;;;;;;5035772;28;19909;-82
2022/05/10 02:06:38;;;;;;;10.32;8.18;;;13.90;99.90;;;;;;5032922;28;20117;-79
2022/05/10 02:09:41;;;;;;;9.02;7.97;;;14.00;99.90;;;;;;5030478;28;20100;-82
2022/05/10 02:12:17;;;;;;;11.95;8.63;;;14.00;99.90;;;;;;5031585;28;20021;-83
2022/05/10 02:14:48;;;;;;;10.65;8.55;;;14.00;99.90;;;;;;5032613;28;20033;-81
2022/05/10 02:17:27;;;;;;;10.98;8.30;;;14.00;99.90;;;;;;5035771;28;20033;-83
2022/05/10 02:20:19;;;;;;;11.13;8.73;;;14.00;99.90;;;;;;5033562;28;20176;-83
2022/05/10 02:23:01;;;;;;;10.30;7.93;;;14.00;99.90;;;;;;5027062;28;20018;-80
2022/05/10 02:25:33;;;;;;;10.30;8.23;;;13.90;99.90;;;;;;5031750;28;20041;-83
2022/05/10 02:28:08;;;;;;;11.52;8.70;;;13.90;99.90;;;;;;5037055;28;20026;-84
2022/05/10 02:30:35;;;;;;;9.27;8.32;;;13.90;99.90;;;;;;5029940;28;20025;-82
2022/05/10 02:33:07;;;;;;;10.50;8.23;;;13.80;99.90;;;;;;5035197;28;20029;-83
2022/05/10 02:35:54;;;;;;;13.27;8.82;;;13.80;99.90;;;;;;5033740;28;20033;-84
2022/05/10 02:38:25;;;;;;;10.25;8.88;;;13.70;99.90;;;;;;5034525;28;20025;-82
2022/05/10 02:40:54;;;;;;;11.18;8.30;;;13.70;99.90;;;;;;5031114;28;20025;-83
2022/05/10 02:43:23;;;;;;;11.50;8.48;;;;;;;;;;5028109;28;20497;-80
2022/05/10 02:45:50;;;;;;;13.18;8.45;;;;;;;;;;5032527;28;20067;-83
2022/05/10 02:48:20;;;;;;;10.73;8.98;;;;;;;;;;5028551;28;20646;-81
2022/05/10 02:50:46;;;;;;;11.73;8.63;;;;;;;;;;5029012;28;20048;-81
2022/05/10 02:53:12;;;;;;;11.43;9.00;;;;;;;;;;5032414;28;20124;-83
2022/05/10 02:56:01;;;;;;;11.18;8.68;;;13.70;99.90;;;;;;5028931;28;20033;-83
2022/05/10 02:58:47;;;;;;;10.70;8.63;;;13.80;99.90;;;;;;5036447;28;20025;-83
2022/05/10 03:01:42;;;;;;;12.07;8.48;;;13.70;99.90;;;;;;5038298;28;20037;-83
2022/05/10 03:04:09;;;;;;;10.73;8.77;;;13.70;99.90;;;;;;5034993;28;20018;-84
2022/05/10 03:06:36;;;;;;;10.55;8.95;;;13.70;99.90;;;;;;5032279;28;20108;-83
2022/05/10 03:09:03;;;;;;;11.68;8.43;;;13.60;99.90;;;;;;5031250;28;20029;-82
2022/05/10 03:11:29;;;;;;;11.05;8.85;;;;;;;;;;5029994;28;20022;-81
2022/05/10 03:13:55;;;;;;;10.65;8.50;;;;;;;;;;5034602;28;20077;-82
2022/05/10 03:16:23;;;;;;;10.10;8.70;;;13.50;99.90;;;;;;5029915;28;20064;-84
2022/05/10 03:18:49;;;;;;;10.50;8.90;;;;;;;;;;5038218;28;20044;-85
2022/05/10 03:21:15;;;;;;;11.52;8.60;;;;;;;;;;5032205;28;20857;-83
2022/05/10 03:23:41;;;;;;;9.93;8.90;;;13.50;99.90;;;;;;5042176;28;20043;-84
2022/05/10 03:26:10;;;;;;;10.85;8.88;;;13.50;99.90;;;;;;5046411;28;20017;-84
2022/05/10 03:28:36;;;;;;;10.98;8.60;;;;;;;;;;5048465;28;20040;-83
2022/05/10 03:31:07;;;;;;;11.77;8.77;;;13.50;99.90;;;;;;5050805;28;20030;-79
2022/05/10 03:33:33;;;;;;;11.82;8.55;;;;;;;;;;5045368;28;20041;-81
2022/05/10 03:35:59;;;;;;;9.52;8.52;;;13.50;99.90;;;;;;5044494;28;20092;-82
2022/05/10 03:38:25;;;;;;;9.80;8.70;;;;;;;;;;5031732;28;20029;-82
2022/05/10 03:40:50;;;;;;;12.65;9.32;;;;;;;;;;5028495;28;20033;-82
2022/05/10 03:43:16;;;;;;;12.38;8.77;;;;;;;;;;5026704;28;20084;-81
2022/05/10 03:45:42;;;;;;;11.55;8.60;;;;;;;;;;5029740;28;20033;-83
2022/05/10 03:48:08;;;;;;;10.15;8.45;;;;;;;;;;5026921;28;20040;-80
2022/05/10 03:50:35;;;;;;;9.95;8.05;;;;;;;;;;5030482;28;20045;-79
2022/05/10 03:53:01;;;;;;;9.52;8.10;;;;;;;;;;5016291;28;20025;-80
2022/05/10 03:55:28;;;;;;;12.43;8.70;;;;;;;;;;5028720;28;20041;-82
2022/05/10 03:57:55;;;;;;;10.57;8.93;;;13.40;99.90;;;;;;5029261;28;20056;-80
2022/05/10 04:00:26;;;;;;;11.68;8.43;;;;;;;;;;5030515;28;20029;-81
2022/05/10 04:02:52;;;;;;;12.23;8.82;;;;;;;;;;5026343;28;20483;-80
2022/05/10 04:05:19;;;;;;;11.25;8.80;;;;;;;;;;5028955;28;20102;-80
2022/05/10 04:07:46;;;;;;;11.40;8.98;;;;;;;;;;5031507;28;20029;-84
2022/05/10 04:10:13;;;;;;;12.50;8.73;;;;;;;;;;5032189;28;20108;-82
2022/05/10 04:12:40;;;;;;;10.32;8.98;;;;;;;;;;5029664;28;20026;-84
2022/05/10 04:15:08;;;;;;;9.93;8.52;;;13.30;99.90;;;;;;5027997;28;20036;-82
2022/05/10 04:17:34;;;;;;;14.30;10.02;;;;;;;;;;5028186;28;20041;-84
2022/05/10 04:20:00;;;;;;;14.68;9.52;;;;;;;;;;5025768;28;20395;-83
2022/05/10 04:22:26;;;;;;;13.52;10.18;;;13.20;99.90;;;;;;5029227;28;20049;-82
2022/05/10 04:24:52;;;;;;;12.38;9.23;;;13.30;99.90;;;;;;5033873;28;20033;-82
2022/05/10 04:27:17;;;;;;;14.25;10.15;;;13.30;99.90;;;;;;5030424;28;20029;-79
2022/05/10 04:29:43;;;;;;;13.48;10.75;;;13.30;99.90;;;;;;5017534;28;20048;-82
2022/05/10 04:32:09;;;;;;;15.95;10.65;;;;;;;;;;5031526;28;20071;-81
2022/05/10 04:34:35;;;;;;;15.65;11.27;;;13.10;99.90;;;;;;5027318;28;20051;-81
2022/05/10 04:37:01;;;;;;;16.15;11.38;;;14.10;99.90;;;;;;5027974;28;20426;-81
2022/05/10 04:41:24;;;;;;;18.25;12.18;;;13.20;99.90;;;;;;5030882;28;20026;-83
2022/05/10 04:42:13;;;;;;;16.23;11.48;;;;;;;;;;5033961;28;20045;-82
2022/05/10 04:44:39;;;;;;;13.00;11.30;;;13.30;99.90;;;;;;5031168;28;20026;-81
2022/05/10 04:47:05;;;;;;;13.93;10.98;;;16.30;99.90;;;;;;5030265;28;20038;-81
2022/05/10 04:49:31;;;;;;;17.38;12.43;;;;;;;;;;5031721;28;20124;-82
2022/05/10 04:51:56;;;;;;;15.20;11.05;;;13.50;99.90;;;;;;5026762;28;20037;-81
2022/05/10 04:54:22;;;;;;;16.58;11.60;;;;;;;;;;5034769;28;20033;-82
2022/05/10 04:56:48;;;;;;;15.52;11.80;;;13.50;99.90;;;;;;5035817;28;20107;-79
2022/05/10 04:59:13;;;;;;;14.85;10.82;;;13.50;99.90;;;;;;5033256;28;20033;-80
2022/05/10 05:01:39;;;;;;;21.08;11.23;;;13.70;99.90;;;;;;5032391;28;20033;-81
2022/05/10 05:04:05;;;;;;;13.23;10.15;;;13.70;99.90;;;;;;5036512;28;20021;-81
2022/05/10 05:06:30;;;;;;;16.40;11.65;;;14.70;99.90;;;;;;5033939;28;20025;-80
2022/05/10 05:08:57;;;;;;;13.07;11.30;;;;;;;;;;5034418;28;20025;-80
2022/05/10 05:11:23;;;;;;;16.00;11.07;;;;;;;;;;5034517;28;20033;-82
2022/05/10 05:13:49;;;;;;;16.05;9.80;;;13.70;99.90;;;;;;5035382;28;20044;-79
2022/05/10 05:16:15;;;;;;;15.57;10.13;;;;;;;;;;5036441;28;20033;-81
2022/05/10 05:18:41;;;;;;;13.25;9.80;;;13.80;99.90;;;;;;5034199;28;20018;-82
2022/05/10 05:21:07;;;;;;;15.45;10.65;;;;;;;;;;5032415;28;20109;-80
2022/05/10 05:23:33;;;;;;;13.10;10.27;;;14.10;99.90;;;;;;5032182;28;20029;-80
2022/05/10 05:25:58;;;;;;;13.38;9.93;;;14.10;99.90;;;;;;5031138;28;20034;-82
2022/05/10 05:28:24;;;;;;;12.75;9.80;;;15.50;99.90;;;;;;5035165;28;20068;-79
2022/05/10 05:30:50;;;;;;;12.25;9.82;;;14.50;99.90;;;;;;5032651;28;20029;-81
2022/05/10 05:33:16;;;;;;;13.30;9.43;;;;;;;;;;5035828;28;20040;-82
2022/05/10 05:35:42;;;;;;;12.75;9.60;;;15.30;99.90;;;;;;5029727;28;20041;-82
2022/05/10 05:38:08;;;;;;;12.68;9.80;;;;;;;;;;5033450;28;20025;-81
2022/05/10 05:40:35;;;;;;;11.77;9.82;;;;;;;;;;5032460;28;20030;-82
2022/05/10 05:43:01;;;;;;;12.80;9.43;;;16.00;99.90;;;;;;5027482;28;20052;-80
2022/05/10 05:45:27;;;;;;;10.68;9.27;;;14.30;99.90;;;;;;5029197;28;20032;-81
2022/05/10 05:47:53;;;;;;;12.70;9.77;;;16.20;99.90;;;;;;5034213;28;20442;-81
2022/05/10 05:50:22;;;;;;;13.18;9.40;;;18.00;99.90;;;;;;5031597;28;20017;-80
2022/05/10 05:52:49;;;;;;;10.43;9.00;;;16.50;99.90;;;;;;5034755;28;21389;-81
2022/05/10 05:55:15;;;;;;;11.80;9.15;;;16.70;99.90;;;;;;5032358;28;20029;-81
2022/05/10 05:57:41;;;;;;;17.13;9.80;;;17.30;99.90;;;;;;5036986;28;20026;-83
2022/05/10 06:00:13;;;;;;;12.73;9.73;;;17.20;99.90;;;;;;5028989;28;20032;-82
2022/05/10 06:02:40;;;;;;;11.95;8.98;;;;;;;;;;5025417;28;20143;-82
2022/05/10 06:05:06;;;;;;;12.63;9.38;;;17.00;99.90;;;;;;5035005;28;20599;-83
2022/05/10 06:07:32;;;;;;;12.98;9.48;;;16.90;99.90;;;;;;5032387;28;20048;-83
2022/05/10 06:09:58;;;;;;;12.45;9.63;;;18.60;99.90;;;;;;5034423;28;20028;-81
2022/05/10 06:12:25;;;;;;;13.40;10.55;;;;;;;;;;5036238;28;20033;-81
2022/05/10 06:14:51;;;;;;;14.77;10.73;;;;;;;;;;5032276;28;20108;-80
2022/05/10 06:17:18;;;;;;;20.58;10.80;;;16.80;99.90;;;;;;5028927;28;20029;-84
2022/05/10 06:19:45;;;;;;;24.05;11.68;;;16.80;99.90;;;;;;5030415;28;20061;-83
2022/05/10 06:22:12;;;;;;;14.13;10.65;;;16.50;99.90;;;;;;5031445;28;20030;-85
2022/05/10 06:24:38;;;;;;;15.48;10.63;;;;;;;;;;5034950;28;20071;-82
2022/05/10 06:27:05;;;;;;;13.90;11.40;;;16.40;99.90;;;;;;5035189;28;20530;-85
2022/05/10 06:29:32;;;;;;;15.52;10.98;;;;;;;;;;5030704;28;20030;-81
2022/05/10 06:31:57;;;;;;;14.15;9.38;;;16.40;99.90;;;;;;5025803;28;20029;-85
2022/05/10 06:34:23;;;;;;;13.98;10.50;;;16.50;99.90;;;;;;5036697;28;20035;-82
2022/05/10 06:36:49;;;;;;;15.80;10.23;;;;;;;;;;5031815;28;20087;-80
2022/05/10 06:39:14;;;;;;;11.68;9.50;;;16.60;99.90;;;;;;5034056;28;20026;-84
2022/05/10 06:41:40;;;;;;;11.50;9.98;;;16.80;99.90;;;;;;5034996;28;20032;-85
2022/05/10 06:44:06;;;;;;;15.52;9.90;;;16.60;99.90;;;;;;5037836;28;20059;-82
2022/05/10 06:46:34;;;;;;;14.00;10.07;;;16.60;99.90;;;;;;5029739;28;20034;-84
2022/05/10 06:49:01;;;;;;;15.30;10.20;;;16.70;99.90;;;;;;5027214;28;20022;-82
2022/05/10 06:51:28;;;;;;;12.05;10.27;;;17.70;99.90;;;;;;5030262;28;20087;-82
2022/05/10 06:53:54;;;;;;;12.55;9.98;;;16.80;99.90;;;;;;5033693;28;20025;-82
2022/05/10 06:56:21;;;;;;;13.90;9.40;;;;;;;;;;5036264;28;20033;-83
2022/05/10 06:58:47;;;;;;;12.73;9.45;;;;;;;;;;5027815;28;20033;-84
2022/05/10 07:01:13;;;;;;;15.45;9.35;;;17.40;99.90;;;;;;5029697;28;20757;-83
2022/05/10 07:03:47;;;;;;;13.65;9.27;;;17.50;99.90;;;;;;5034084;28;20029;-84
2022/05/10 07:06:16;;;;;;;12.35;9.55;;;17.60;99.90;;;;;;5032078;28;20499;-83
2022/05/10 07:08:43;;;;;;;13.45;8.43;;;17.80;99.90;;;;;;5027735;28;20033;-84
2022/05/10 07:11:09;;;;;;;13.10;9.98;;;17.80;99.90;;;;;;5032619;28;20026;-86
2022/05/10 07:13:36;;;;;;;12.30;8.90;;;17.90;99.90;;;;;;5026858;28;20097;-84
2022/05/10 07:16:02;;;;;;;10.88;8.07;;;17.80;99.90;;;;;;5034885;28;20029;-83
2022/05/10 07:18:29;;;;;;;12.98;8.27;;;;;;;;;;5013379;28;20060;-86
2022/05/10 07:20:55;;;;;;;10.80;7.78;;;;;;;;;;5035111;28;20101;-82
2022/05/10 07:23:23;;;;;;;11.63;7.43;;;18.40;99.90;;;;;;5028151;28;20021;-80
2022/05/10 07:25:49;;;;;;;12.65;7.30;;;;;;;;;;5032910;28;20097;-83
2022/05/10 07:28:16;;;;;;;9.93;7.38;;;;;;;;;;5031148;28;20081;-83
2022/05/10 07:30:41;;;;;;;12.10;6.70;;;18.90;99.90;;;;;;5030011;28;20057;-82
2022/05/10 07:33:08;;;;;;;11.68;6.15;;;;;;;;;;5030521;28;20033;-82
2022/05/10 07:38:19;;;;;;;12.07;7.20;;;19.50;99.90;;;;;;5028845;28;20053;-82
2022/05/10 07:40:47;;;;;;;9.90;6.72;;;19.30;99.90;;;;;;5028689;28;20487;-84
2022/05/10 07:43:14;;;;;;;9.02;7.03;;;19.40;99.90;;;;;;5028718;28;20034;-82
2022/05/10 07:45:42;;;;;;;9.00;6.65;;;19.40;99.90;;;;;;5028625;28;20460;-82
2022/05/10 07:48:08;;;;;;;10.80;7.15;;;19.40;99.90;;;;;;5031302;28;20045;-83
2022/05/10 07:50:34;;;;;;;10.75;6.72;;;19.90;99.90;;;;;;5028041;28;20052;-83
2022/05/10 07:53:06;;;;;;;10.15;6.05;;;19.90;99.90;;;;;;5032666;28;20026;-82
2022/05/10 07:55:32;;;;;;;11.10;6.57;;;19.90;99.90;;;;;;5028948;28;20041;-82
2022/05/10 07:57:58;;;;;;;9.57;6.97;;;;;;;;;;5032055;28;20085;-83
2022/05/10 08:00:24;;;;;;;9.95;7.28;;;;;;;;;;5026662;28;20064;-81
2022/05/10 08:02:50;;;;;;;10.70;6.45;;;20.30;99.90;;;;;;5026291;28;20029;-82
2022/05/10 08:05:22;;;;;;;8.25;5.88;;;20.50;99.90;;;;;;5035881;28;20479;-85
2022/05/10 08:07:48;;;;;;;7.60;6.70;;;20.50;99.90;;;;;;5033119;28;20049;-81
2022/05/10 08:10:19;;;;;;;8.57;6.90;;;20.70;99.90;;;;;;5031174;28;20041;-82
2022/05/10 08:12:45;;;;;;;9.48;6.53;;;20.70;99.90;;;;;;5026717;28;20026;-83
2022/05/10 08:15:12;;;;;;;9.45;6.45;;;20.70;99.90;;;;;;5033819;28;20032;-85
2022/05/10 08:17:39;;;;;;;12.48;6.93;;;20.80;99.90;;;;;;5026323;28;20045;-84
2022/05/10 08:20:05;;;;;;;11.00;6.75;;;20.50;99.90;;;;;;5029338;28;20022;-83
2022/05/10 08:22:31;;;;;;;10.63;6.95;;;21.00;99.90;;;;;;5031963;28;20033;-83
2022/05/10 08:24:59;;;;;;;8.90;5.88;;;20.90;99.90;;;;;;5035470;28;20031;-82
2022/05/10 08:27:25;;;;;;;11.25;8.07;;;21.10;99.90;;;;;;5037257;28;20026;-84
2022/05/10 08:29:50;;;;;;;8.45;6.55;;;21.40;99.90;;;;;;5039852;28;20040;-84
2022/05/10 08:32:16;;;;;;;8.43;6.35;;;21.50;99.80;;;;;;5036612;28;20029;-85
2022/05/10 08:34:42;;;;;;;7.72;6.10;;;21.50;99.90;;;;;;5030586;28;20037;-84
2022/05/10 08:37:08;;;;;;;11.45;6.25;;;;;;;;;;5030012;28;20033;-83
2022/05/10 08:39:34;;;;;;;9.13;6.25;;;;;;;;;;5020744;28;20037;-79
2022/05/10 08:42:23;;;;;;;12.95;6.65;;;22.20;98.60;;;;;;5017676;28;20041;-79
2022/05/10 08:44:56;;;;;;;9.18;5.88;;;22.30;98.30;;;;;;5019909;28;20029;-80
2022/05/10 08:47:23;;;;;;;9.88;6.05;;;22.20;98.70;;;;;;5022665;28;20025;-82
2022/05/10 08:49:59;;;;;;;13.30;6.68;;;22.70;97.70;;;;;;5021335;28;20075;-81
2022/05/10 08:52:30;;;;;;;12.70;6.45;;;22.70;98.40;;;;;;5021874;28;20029;-82
2022/05/10 08:54:56;;;;;;;8.02;6.13;;;22.70;97.10;;;;;;5017525;28;20025;-82
2022/05/10 08:57:34;;;;;;;8.68;5.90;;;22.70;97.40;;;;;;5030479;28;20025;-83
2022/05/10 09:00:31;;;;;;;7.07;6.15;;;22.90;97.20;;;;;;5023097;28;20026;-80
2022/05/10 09:02:59;;;;;;;7.22;5.63;;;23.00;97.10;;;;;;5016264;28;20499;-83
2022/05/10 09:05:38;;;;;;;8.45;5.88;;;23.10;96.30;;;;;;5020820;28;20088;-81
2022/05/10 09:08:06;;;;;;;6.57;5.55;;;23.20;95.20;;;;;;5021112;28;20029;-80
2022/05/10 09:10:56;;;;;;;8.75;5.20;;;23.40;95.70;;;;;;5025972;28;20057;-84
2022/05/10 09:13:23;;;;;;;7.15;5.43;;;23.40;93.40;;;;;;5036139;28;20024;-82
2022/05/10 09:16:03;;;;;;;8.57;5.28;;;23.60;93.80;;;;;;5024458;28;20037;-84
2022/05/10 09:19:01;;;;;;;9.02;5.47;;;23.70;93.10;;;;;;5027522;28;20029;-84
2022/05/10 09:21:33;;;;;;;8.90;5.35;;;23.80;92.00;;;;;;4986151;28;20448;-85
2022/05/10 09:23:59;;;;;;;7.28;5.40;;;;;;;;;;5022967;28;20034;-84
2022/05/10 09:26:34;;;;;;;9.65;5.57;;;23.90;92.30;;;;;;5041345;28;20048;-86
2022/05/10 09:29:31;;;;;;;13.45;7.50;;;23.90;91.50;;;;;;5040523;28;20077;-80
2022/05/10 09:37:36;;;;;;;9.52;5.68;;;24.30;90.50;;;;;;5021163;28;20038;-81
2022/05/10 09:40:07;;;;;;;7.82;5.20;;;24.40;90.50;;;;;;5032536;28;20168;-81
2022/05/10 09:42:49;;;;;;;9.00;5.53;;;24.20;90.80;;;;;;5010840;28;20551;-82
2022/05/10 09:45:27;;;;;;;7.20;5.45;;;24.30;90.50;;;;;;5032536;28;20057;-79
2022/05/10 09:48:14;;;;;;;9.63;5.90;;;24.70;93.20;;;;;;5025205;28;20036;-82
2022/05/10 09:50:46;;;;;;;8.55;5.85;;;24.60;90.50;;;;;;5015329;28;20117;-82
2022/05/10 09:53:12;;;;;;;7.20;5.13;;;;;;;;;;5037751;28;20018;-81
2022/05/10 09:55:51;;;;;;;9.48;4.70;;;24.90;89.80;;;;;;5037156;28;20037;-82
2022/05/10 09:58:24;;;;;;;9.03;5.27;;;25.00;89.60;;;;;;5041560;28;20025;-82
2022/05/10 10:00:56;;;;;;;9.95;5.18;;;24.90;84.90;;;;;;5037992;28;20018;-84
2022/05/10 10:03:33;;;;;;;7.05;4.45;;;24.90;86.00;;;;;;5035647;28;20032;-81
2022/05/10 10:06:18;;;;;;;7.55;4.70;;;25.00;86.60;;;;;;5036389;28;20030;-81
2022/05/10 10:08:49;;;;;;;9.82;4.75;;;25.30;84.50;;;;;;5023768;28;20093;-83
2022/05/10 10:11:28;;;;;;;6.97;4.97;;;25.40;84.80;;;;;;5036341;28;21645;-80
2022/05/10 10:14:06;;;;;;;9.95;4.97;;;25.40;84.60;;;;;;5031079;28;20025;-81
2022/05/10 10:16:34;;;;;;;6.28;4.60;;;25.50;82.90;;;;;;5008355;28;20072;-83
2022/05/10 10:19:11;;;;;;;6.05;4.55;;;25.70;83.10;;;;;;5025877;28;20029;-81
2022/05/10 10:21:56;;;;;;;5.35;4.50;;;25.70;81.50;;;;;;5030919;28;20455;-82
2022/05/10 10:24:30;;;;;;;7.53;4.78;;;25.90;80.90;;;;;;5026251;28;20032;-81
2022/05/10 10:27:03;;;;;;;17.77;5.53;;;25.90;81.30;;;;;;5030026;28;20037;-85
2022/05/10 10:29:41;;;;;;;18.58;11.85;;;25.90;82.90;;;;;;5026108;28;20085;-82
2022/05/10 10:32:37;;;;;;;4.90;4.18;;;26.00;77.60;;;;;;5027474;28;20025;-81
2022/05/10 10:35:16;;;;;;;6.65;4.18;;;26.00;77.10;;;;;;5032919;28;20046;-82
2022/05/10 10:37:50;;;;;;;5.50;4.28;;;25.80;76.30;;;;;;5027912;28;20594;-83
2022/05/10 10:40:21;;;;;;;6.78;4.90;;;25.80;77.30;;;;;;5029313;28;20518;-83
2022/05/10 10:42:56;;;;;;;5.78;4.05;;;25.90;77.30;;;;;;5030308;28;20035;-83
2022/05/10 10:45:42;;;;;;;5.85;4.47;;;26.00;75.90;;;;;;5026178;28;20034;-84
2022/05/10 10:48:44;;;;;;;5.07;4.38;;;26.00;76.30;;;;;;5018328;28;20179;-82
2022/05/10 10:51:11;;;;;;;5.30;4.00;;;25.90;75.10;;;;;;5022585;28;20057;-83
2022/05/10 10:53:39;;;;;;;6.13;4.20;;;25.90;74.60;;;;;;5007131;28;20033;-82
2022/05/10 10:56:27;;;;;;;5.32;3.80;;;26.00;74.90;;;;;;5026268;28;20029;-81
2022/05/10 10:59:05;;;;;;;6.75;3.25;;;25.90;67.60;;;;;;5023208;28;20491;-84
2022/05/10 11:01:36;;;;;;;6.55;3.10;;;25.90;67.50;;;;;;5029306;28;20055;-82
2022/05/10 11:04:30;;;;;;;5.18;3.28;;;25.70;72.30;;;;;;5015069;28;23092;-83
2022/05/10 11:06:56;;;;;;;6.93;3.30;;;25.50;68.40;;;;;;5026858;28;20044;-80
2022/05/10 11:09:43;;;;;;;5.85;3.70;;;25.50;68.50;;;;;;5012932;28;20030;-84
2022/05/10 11:12:29;;;;;;;5.35;3.90;;;25.40;69.80;;;;;;5026538;28;20030;-84
2022/05/10 11:15:34;;;;;;;6.20;3.90;;;25.90;69.40;;;;;;4978494;28;20029;-83
2022/05/10 11:18:16;;;;;;;8.75;4.50;;;26.30;71.00;;;;;;5028035;28;20045;-85
2022/05/10 11:21:00;;;;;;;4.80;3.78;;;26.20;69.90;;;;;;5024667;28;20040;-83
2022/05/10 11:24:00;;;;;;;5.68;3.80;;;25.70;75.40;;;;;;5026524;28;20039;-83
2022/05/10 11:26:44;;;;;;;4.03;3.40;;;26.40;68.40;;;;;;5025186;28;20033;-86
2022/05/10 11:29:47;;;;;;;4.20;3.30;;;26.60;66.10;;;;;;5023328;28;20029;-81
2022/05/10 11:32:33;;;;;;;4.35;3.35;;;26.90;64.40;;;;;;5024187;28;20037;-82
2022/05/10 11:35:20;;;;;;;6.72;3.40;;;26.90;64.00;;;;;;5025960;28;20032;-84
2022/05/10 11:38:11;;;;;;;6.85;3.83;;;26.90;63.60;;;;;;5022290;28;20034;-83
2022/05/10 11:41:08;;;;;;;5.40;3.20;;;26.80;63.00;;;;;;5029134;28;20049;-84
2022/05/10 11:44:20;;;;;;;9.38;3.70;;;26.90;63.90;;;;;;5019652;28;20041;-82
2022/05/10 11:47:07;;;;;;;4.18;3.40;;;27.00;63.00;;;;;;5023376;28;20062;-83
2022/05/10 11:49:47;;;;;;;5.35;3.45;;;27.00;63.70;;;;;;5028208;28;20041;-83
2022/05/10 11:52:34;;;;;;;4.93;2.75;;;26.80;62.10;;;;;;5020938;28;20649;-84
2022/05/10 11:55:18;;;;;;;6.32;3.17;;;26.70;60.50;;;;;;5024669;28;20030;-84
2022/05/10 11:57:44;;;;;;;5.85;3.22;;;26.80;61.10;;;;;;5024400;28;20095;-84
2022/05/10 12:00:32;;;;;;;5.43;3.05;;;26.90;61.60;;;;;;5027115;28;20093;-83
2022/05/10 12:02:59;;;;;;;3.50;2.72;;;27.00;62.10;;;;;;5027720;28;20025;-85
2022/05/10 12:05:34;;;;;;;4.40;2.67;;;26.90;58.10;;;;;;5028424;28;20128;-84
2022/05/10 12:08:01;;;;;;;5.28;2.70;;;27.10;58.20;;;;;;5012417;28;20132;-81
2022/05/10 12:10:42;;;;;;;3.75;2.63;;;28.40;59.60;;;;;;5025466;28;20037;-82
2022/05/10 12:13:09;;;;;;;4.20;2.45;;;27.10;59.20;;;;;;5009819;28;20029;-83
2022/05/10 12:21:50;;;;;;;4.05;2.67;;;27.30;56.20;;;;;;5019963;28;20136;-82
2022/05/10 12:24:16;;;;;;;3.30;2.55;;;;;;;;;;5021583;28;20021;-83
2022/05/10 12:26:59;;;;;;;6.25;2.60;;;27.10;55.30;;;;;;5025048;28;20060;-82
2022/05/10 12:29:36;;;;;;;4.10;2.50;;;26.90;55.50;;;;;;5020697;28;20029;-83
2022/05/10 12:32:27;;;;;;;5.13;2.90;;;27.00;56.20;;;;;;5019514;28;20559;-82
2022/05/10 12:34:58;;;;;;;5.07;2.78;;;27.10;55.50;;;;;;5024574;28;20518;-82
2022/05/10 12:37:26;;;;;;;6.22;2.75;;;;;;;;;;5019977;28;20507;-82
2022/05/10 12:39:58;;;;;;;4.30;3.00;;;27.00;57.60;;;;;;5001921;28;20287;-82
2022/05/10 12:42:48;;;;;;;6.60;2.78;;;26.90;57.20;;;;;;5020081;28;20466;-81
2022/05/10 12:45:51;;;;;;;4.88;2.95;;;26.90;57.70;;;;;;5021638;28;20036;-83
2022/05/10 12:48:39;;;;;;;6.40;2.78;;;27.00;57.70;;;;;;5019863;28;20025;-85
2022/05/10 12:51:39;;;;;;;5.60;2.83;;;27.10;57.70;;;;;;5021896;28;20025;-83
2022/05/10 12:54:26;;;;;;;5.28;2.90;;;27.10;58.10;;;;;;5019787;28;20136;-83
2022/05/10 12:57:23;;;;;;;4.55;2.78;;;27.20;57.10;;;;;;5022127;28;20032;-83
2022/05/10 12:59:50;;;;;;;5.05;2.70;;;;;;;;;;5020580;28;20048;-83
2022/05/10 13:02:16;;;;;;;5.78;2.55;;;27.20;56.10;;;;;;5019940;28;20357;-83
2022/05/10 13:04:46;;;;;;;5.03;2.80;;;27.20;56.60;;;;;;5027053;28;20045;-82
2022/05/10 13:07:37;;;;;;;5.18;2.50;;;27.10;56.70;;;;;;5021101;28;20048;-83
2022/05/10 13:10:14;;;;;;;5.63;2.65;;;27.10;57.30;;;;;;5024948;28;20475;-81
2022/05/10 13:12:46;;;;;;;5.10;2.60;;;27.10;55.90;;;;;;5027854;28;20484;-82
2022/05/10 13:15:21;;;;;;;5.03;2.53;;;27.20;56.50;;;;;;5028038;28;20026;-83
2022/05/10 13:18:06;;;;;;;7.38;2.80;;;27.10;56.60;;;;;;5027396;28;20096;-83
2022/05/10 13:20:32;;;;;;;4.18;2.72;;;27.00;56.50;;;;;;5017381;28;20085;-82
2022/05/10 13:23:04;;;;;;;4.10;2.72;;;26.70;57.40;;;;;;5011674;28;20030;-82
2022/05/10 13:25:35;;;;;;;3.78;2.80;;;26.40;56.80;;;;;;5031384;28;20048;-82
2022/05/10 13:28:22;;;;;;;6.20;3.10;;;26.20;57.40;;;;;;5028781;28;20140;-81
2022/05/10 13:30:50;;;;;;;4.15;3.00;;;26.30;57.30;;;;;;5032137;28;20495;-82
2022/05/10 13:33:35;;;;;;;4.05;2.50;;;26.30;57.90;;;;;;5017860;28;20508;-81
2022/05/10 13:36:09;;;;;;;3.25;2.67;;;26.40;58.50;;;;;;5031951;28;20053;-83
2022/05/10 13:38:38;;;;;;;6.85;2.97;;;26.60;58.40;;;;;;5042988;28;20021;-83
2022/05/10 13:41:06;;;;;;;;;;;26.50;58.80;;;;;;5044955;28;20033;-84
2022/05/10 13:43:36;;;;;;;3.53;2.63;;;26.40;59.10;;;;;;5043332;28;20041;-84
2022/05/10 13:46:16;;;;;;;5.75;3.20;;;26.40;58.60;;;;;;5041422;28;20076;-84
2022/05/10 13:48:53;;;;;;;3.70;2.97;;;26.30;58.90;;;;;;5044234;28;20069;-84
2022/05/10 13:51:22;;;;;;;9.82;3.08;;;26.30;59.80;;;;;;5025339;28;20020;-84
2022/05/10 13:53:57;;;;;;;;;;;26.10;59.60;;;;;;5034298;28;20053;-82
2022/05/10 13:56:30;;;;;;;4.95;3.08;;;26.10;59.60;;;;;;5027281;28;19940;-83